createdAt,value
2023-04-23T00:01:30.106Z,17.80
2023-04-23T00:03:58.534Z,17.70
2023-04-23T00:06:26.834Z,17.80
2023-04-23T00:08:55.316Z,17.70
2023-04-23T00:11:22.536Z,17.70
2023-04-23T00:13:49.997Z,17.70
2023-04-23T00:16:19.262Z,17.70
2023-04-23T00:18:46.553Z,17.70
2023-04-23T00:21:14.255Z,17.60
2023-04-23T00:23:41.622Z,17.60
2023-04-23T00:26:08.561Z,17.60
2023-04-23T00:28:35.638Z,17.60
2023-04-23T00:31:02.626Z,17.70
2023-04-23T00:33:32.715Z,17.60
2023-04-23T00:35:59.872Z,17.60
2023-04-23T00:38:27.088Z,17.50
2023-04-23T00:40:54.335Z,17.60
2023-04-23T00:43:21.906Z,17.60
2023-04-23T00:45:49.341Z,17.60
2023-04-23T00:48:16.853Z,17.60
2023-04-23T00:50:43.926Z,17.70
2023-04-23T00:53:10.902Z,17.60
2023-04-23T00:55:38.124Z,17.80
2023-04-23T00:58:06.756Z,17.60
2023-04-23T01:00:42.115Z,17.70
2023-04-23T01:03:10.602Z,17.60
2023-04-23T01:05:37.768Z,17.70
2023-04-23T01:08:04.930Z,17.70
2023-04-23T01:10:33.047Z,17.70
2023-04-23T01:13:00.210Z,17.80
2023-04-23T01:15:27.557Z,17.80
2023-04-23T01:17:54.895Z,17.70
2023-04-23T01:20:22.108Z,17.80
2023-04-23T01:22:49.067Z,18.10
2023-04-23T01:25:16.118Z,18.00
2023-04-23T01:27:43.780Z,17.90
2023-04-23T01:30:11.478Z,17.90
2023-04-23T01:32:39.269Z,17.90
2023-04-23T01:35:07.366Z,17.90
2023-04-23T01:37:35.914Z,18.00
2023-04-23T01:40:03.042Z,17.80
2023-04-23T01:42:30.245Z,18.00
2023-04-23T01:44:57.952Z,18.00
2023-04-23T01:47:25.496Z,18.00
2023-04-23T01:49:52.648Z,18.00
2023-04-23T01:52:19.794Z,18.00
2023-04-23T01:54:46.909Z,18.00
2023-04-23T01:57:14.042Z,18.10
2023-04-23T01:59:42.758Z,18.10
2023-04-23T02:02:13.946Z,18.00
2023-04-23T02:04:44.857Z,18.10
2023-04-23T02:07:12.209Z,18.10
2023-04-23T02:09:39.911Z,18.10
2023-04-23T02:12:06.886Z,18.10
2023-04-23T02:14:33.833Z,18.10
2023-04-23T02:17:01.260Z,18.10
2023-04-23T02:19:28.214Z,18.10
2023-04-23T02:21:55.634Z,18.10
2023-04-23T02:24:22.756Z,18.10
2023-04-23T02:26:49.683Z,18.10
2023-04-23T02:29:16.957Z,18.10
2023-04-23T02:31:44.009Z,18.00
2023-04-23T02:34:11.222Z,18.20
2023-04-23T02:36:39.398Z,18.10
2023-04-23T02:39:07.053Z,18.10
2023-04-23T02:41:34.018Z,18.10
2023-04-23T02:44:01.209Z,18.20
2023-04-23T02:46:28.172Z,17.90
2023-04-23T02:48:55.443Z,17.80
2023-04-23T02:51:22.638Z,17.60
2023-04-23T02:53:49.682Z,17.40
2023-04-23T02:56:16.906Z,17.20
2023-04-23T02:58:44.210Z,17.10
2023-04-23T03:01:11.532Z,17.00
2023-04-23T03:03:38.896Z,16.70
2023-04-23T03:06:06.980Z,16.70
2023-04-23T03:08:34.294Z,16.50
2023-04-23T03:11:01.350Z,16.40
2023-04-23T03:13:28.527Z,16.30
2023-04-23T03:15:56.076Z,16.20
2023-04-23T03:18:23.304Z,16.10
2023-04-23T03:20:53.371Z,16.10
2023-04-23T03:23:20.308Z,16.00
2023-04-23T03:25:48.330Z,16.00
2023-04-23T03:28:15.534Z,15.90
2023-04-23T03:30:43.020Z,15.80
2023-04-23T03:33:10.223Z,15.80
2023-04-23T03:35:37.683Z,15.80
2023-04-23T03:38:09.227Z,15.80
2023-04-23T03:40:36.886Z,15.70
2023-04-23T03:43:06.105Z,15.70
2023-04-23T03:45:51.740Z,15.70
2023-04-23T03:48:21.763Z,15.70
2023-04-23T03:50:49.696Z,15.80
2023-04-23T03:53:30.603Z,15.90
2023-04-23T03:56:16.271Z,15.80
2023-04-23T03:58:52.834Z,15.50
2023-04-23T04:01:20.028Z,15.80
2023-04-23T04:03:47.193Z,15.80
2023-04-23T04:06:16.031Z,15.80
2023-04-23T04:08:43.190Z,16.00
2023-04-23T04:11:10.316Z,15.80
2023-04-23T04:13:37.332Z,15.80
2023-04-23T04:16:04.770Z,15.80
2023-04-23T04:18:31.954Z,15.80
2023-04-23T04:20:59.060Z,15.80
2023-04-23T04:23:26.838Z,15.80
2023-04-23T04:25:56.609Z,15.80
2023-04-23T04:28:25.224Z,15.90
2023-04-23T04:30:57.951Z,15.80
2023-04-23T04:33:25.804Z,15.80
2023-04-23T04:35:52.877Z,15.80
2023-04-23T04:38:19.938Z,15.80
2023-04-23T04:40:46.874Z,15.80
2023-04-23T04:43:13.701Z,15.90
2023-04-23T04:45:40.648Z,15.90
2023-04-23T04:48:07.826Z,15.90
2023-04-23T04:50:35.581Z,16.00
2023-04-23T04:53:02.744Z,16.00
2023-04-23T04:55:29.571Z,16.00
2023-04-23T04:57:56.698Z,16.00
2023-04-23T05:00:29.620Z,16.10
2023-04-23T05:02:58.683Z,16.50
2023-04-23T05:05:27.626Z,16.20
2023-04-23T05:07:54.907Z,16.20
2023-04-23T05:10:22.287Z,16.20
2023-04-23T05:12:52.018Z,16.30
2023-04-23T05:15:19.117Z,16.30
2023-04-23T05:17:46.528Z,16.40
2023-04-23T05:20:14.589Z,16.50
2023-04-23T05:22:42.721Z,16.50
2023-04-23T05:25:11.947Z,16.60
2023-04-23T05:27:39.871Z,16.60
2023-04-23T05:30:10.618Z,16.60
2023-04-23T05:32:38.413Z,16.80
2023-04-23T05:35:07.469Z,16.90
2023-04-23T05:37:34.659Z,16.90
2023-04-23T05:40:02.749Z,17.00
2023-04-23T05:42:29.948Z,17.00
2023-04-23T05:44:56.967Z,17.20
2023-04-23T05:47:24.204Z,17.20
2023-04-23T05:49:51.113Z,17.30
2023-04-23T05:52:19.451Z,17.40
2023-04-23T05:54:46.617Z,17.50
2023-04-23T05:57:13.839Z,17.90
2023-04-23T05:59:40.875Z,17.70
2023-04-23T06:02:09.816Z,18.00
2023-04-23T06:04:38.104Z,17.90
2023-04-23T06:07:05.657Z,18.10
2023-04-23T06:09:32.703Z,18.10
2023-04-23T06:11:59.774Z,18.40
2023-04-23T06:14:26.844Z,18.20
2023-04-23T06:16:53.714Z,18.20
2023-04-23T06:19:20.803Z,18.30
2023-04-23T06:21:47.745Z,18.30
2023-04-23T06:24:14.866Z,18.30
2023-04-23T06:26:41.881Z,18.40
2023-04-23T06:29:15.003Z,18.20
2023-04-23T06:32:08.480Z,18.50
2023-04-23T06:34:35.641Z,18.50
2023-04-23T06:37:02.870Z,18.80
2023-04-23T06:39:30.045Z,18.50
2023-04-23T06:41:58.100Z,18.60
2023-04-23T06:44:44.382Z,18.70
2023-04-23T06:47:11.743Z,18.70
2023-04-23T06:49:40.958Z,18.80
2023-04-23T06:52:08.069Z,18.90
2023-04-23T06:54:35.140Z,18.90
2023-04-23T06:57:02.209Z,19.00
2023-04-23T06:59:29.111Z,19.10
2023-04-23T07:01:57.892Z,19.20
2023-04-23T07:04:25.091Z,19.40
2023-04-23T07:06:52.011Z,19.50
2023-04-23T07:09:19.061Z,19.60
2023-04-23T07:11:46.498Z,19.70
2023-04-23T07:14:13.676Z,20.00
2023-04-23T07:16:40.930Z,20.10
2023-04-23T07:19:09.330Z,19.80
2023-04-23T07:21:36.375Z,19.80
2023-04-23T07:24:07.320Z,19.80
2023-04-23T07:26:35.788Z,19.90
2023-04-23T07:29:05.077Z,19.70
2023-04-23T07:31:31.915Z,19.80
2023-04-23T07:33:58.981Z,20.10
2023-04-23T07:36:26.601Z,19.80
2023-04-23T07:38:53.630Z,19.70
2023-04-23T07:41:20.876Z,19.60
2023-04-23T07:43:47.801Z,19.50
2023-04-23T07:46:14.994Z,19.30
2023-04-23T07:48:42.040Z,19.40
2023-04-23T07:51:09.806Z,19.30
2023-04-23T07:53:36.979Z,18.90
2023-04-23T07:56:04.024Z,18.80
2023-04-23T07:58:33.074Z,18.60
2023-04-23T08:01:00.269Z,18.40
2023-04-23T08:03:29.308Z,18.40
2023-04-23T08:05:57.017Z,18.40
2023-04-23T08:08:24.341Z,18.30
2023-04-23T08:10:51.533Z,18.10
2023-04-23T08:13:18.578Z,18.00
2023-04-23T08:15:45.626Z,17.90
2023-04-23T08:18:12.859Z,18.00
2023-04-23T08:20:40.083Z,17.90
2023-04-23T08:23:07.436Z,17.80
2023-04-23T08:25:34.676Z,17.80
2023-04-23T08:28:02.314Z,17.80
2023-04-23T08:30:29.438Z,17.80
2023-04-23T08:32:57.157Z,17.80
2023-04-23T08:35:24.804Z,17.60
2023-04-23T08:37:51.928Z,17.80
2023-04-23T08:40:19.132Z,17.90
2023-04-23T08:43:03.978Z,17.90
2023-04-23T08:45:31.350Z,17.90
2023-04-23T08:48:02.931Z,18.00
2023-04-23T08:50:32.018Z,18.10
2023-04-23T08:52:59.166Z,18.50
2023-04-23T08:55:26.621Z,18.30
2023-04-23T08:57:55.932Z,18.40
2023-04-23T09:00:26.439Z,18.50
2023-04-23T09:02:54.280Z,18.80
2023-04-23T09:05:21.618Z,18.80
2023-04-23T09:07:48.576Z,18.90
2023-04-23T09:10:18.445Z,19.00
2023-04-23T09:12:46.832Z,19.10
2023-04-23T09:15:14.429Z,19.10
2023-04-23T09:17:46.182Z,19.20
2023-04-23T09:20:14.819Z,19.40
2023-04-23T09:22:50.663Z,19.20
2023-04-23T09:25:20.568Z,19.10
2023-04-23T09:27:52.667Z,19.20
2023-04-23T09:30:20.286Z,19.10
2023-04-23T09:32:48.124Z,19.10
2023-04-23T09:35:22.452Z,19.10
2023-04-23T09:37:52.837Z,19.00
2023-04-23T09:40:23.470Z,19.00
2023-04-23T09:42:55.578Z,19.00
2023-04-23T09:45:25.312Z,18.90
2023-04-23T09:47:57.468Z,18.90
2023-04-23T09:50:39.887Z,18.80
2023-04-23T09:53:08.900Z,18.80
2023-04-23T09:55:43.121Z,18.70
2023-04-23T09:58:16.059Z,18.70
2023-04-23T10:00:44.482Z,18.50
2023-04-23T10:03:12.060Z,18.60
2023-04-23T10:05:56.224Z,18.60
2023-04-23T10:08:28.474Z,18.60
2023-04-23T10:11:06.643Z,18.60
2023-04-23T10:13:41.507Z,18.60
2023-04-23T10:16:21.260Z,18.60
2023-04-23T10:18:52.223Z,18.50
2023-04-23T10:21:20.798Z,18.50
2023-04-23T10:23:50.166Z,18.60
2023-04-23T10:26:18.510Z,18.40
2023-04-23T10:28:49.057Z,18.60
2023-04-23T10:31:16.569Z,18.90
2023-04-23T10:33:56.123Z,18.70
2023-04-23T10:36:27.467Z,18.80
2023-04-23T10:38:58.282Z,18.80
2023-04-23T10:41:36.423Z,18.80
2023-04-23T10:44:05.850Z,18.90
2023-04-23T10:46:37.083Z,19.00
2023-04-23T10:49:17.220Z,19.00
2023-04-23T10:54:19.816Z,19.40
2023-04-23T10:56:58.661Z,19.60
2023-04-23T10:59:26.711Z,19.80
2023-04-23T11:01:53.813Z,20.10
2023-04-23T11:04:28.635Z,20.20
2023-04-23T11:07:10.921Z,20.50
2023-04-23T11:09:41.019Z,20.70
2023-04-23T11:12:11.827Z,20.90
2023-04-23T11:14:45.403Z,21.10
2023-04-23T11:17:14.283Z,21.30
2023-04-23T11:19:43.522Z,21.40
2023-04-23T11:22:16.775Z,21.60
2023-04-23T11:24:47.217Z,21.80
2023-04-23T11:27:18.310Z,21.60
2023-04-23T11:29:46.783Z,21.90
2023-04-23T11:32:17.013Z,21.80
2023-04-23T11:34:46.964Z,21.80
2023-04-23T11:37:15.430Z,21.70
2023-04-23T11:39:44.988Z,21.70
2023-04-23T11:42:13.233Z,21.70
2023-04-23T11:44:42.967Z,21.70
2023-04-23T11:47:13.632Z,21.70
2023-04-23T11:49:43.220Z,21.70
2023-04-23T11:52:12.182Z,21.70
2023-04-23T11:54:41.737Z,21.70
2023-04-23T11:57:08.930Z,21.80
2023-04-23T11:59:36.085Z,21.90
2023-04-23T12:02:03.308Z,22.00
2023-04-23T12:04:32.154Z,22.40
2023-04-23T12:06:59.844Z,23.10
2023-04-23T12:09:29.123Z,23.90
2023-04-23T12:11:58.486Z,24.70
2023-04-23T12:14:30.990Z,25.30
2023-04-23T12:17:09.442Z,25.80
2023-04-23T12:19:37.108Z,26.40
2023-04-23T12:22:05.153Z,26.80
2023-04-23T12:24:47.476Z,27.50
2023-04-23T12:27:16.676Z,28.10
2023-04-23T12:29:44.049Z,28.50
2023-04-23T12:32:12.239Z,28.80
2023-04-23T12:34:55.480Z,28.90
2023-04-23T12:37:28.352Z,28.80
2023-04-23T12:39:56.795Z,28.50
2023-04-23T12:42:24.257Z,28.50
2023-04-23T12:44:51.698Z,28.20
2023-04-23T12:47:21.742Z,28.00
2023-04-23T12:49:53.733Z,28.10
2023-04-23T12:52:21.519Z,28.00
2023-04-23T12:54:52.598Z,28.10
2023-04-23T12:57:23.411Z,28.30
2023-04-23T12:59:51.011Z,28.60
2023-04-23T13:02:18.163Z,29.10
2023-04-23T13:04:45.465Z,29.70
2023-04-23T13:07:12.457Z,30.30
2023-04-23T13:09:39.419Z,30.90
2023-04-23T13:12:06.486Z,31.40
2023-04-23T13:14:33.563Z,31.80
2023-04-23T13:17:01.018Z,32.00
2023-04-23T13:19:27.920Z,32.60
2023-04-23T13:21:54.906Z,32.90
2023-04-23T13:24:21.712Z,33.30
2023-04-23T13:26:48.901Z,33.40
2023-04-23T13:29:16.090Z,33.40
2023-04-23T13:31:43.253Z,33.40
2023-04-23T13:34:10.353Z,33.30
2023-04-23T13:36:37.800Z,33.30
2023-04-23T13:39:05.519Z,33.40
2023-04-23T13:41:32.575Z,33.60
2023-04-23T13:44:00.403Z,33.70
2023-04-23T13:46:27.964Z,33.80
2023-04-23T13:48:54.944Z,33.70
2023-04-23T13:51:34.040Z,33.40
2023-04-23T13:54:05.873Z,33.30
2023-04-23T13:56:33.102Z,32.90
2023-04-23T14:01:32.340Z,32.80
2023-04-23T14:03:59.343Z,32.70
2023-04-23T14:06:27.535Z,32.50
2023-04-23T14:08:54.760Z,32.30
2023-04-23T14:11:22.595Z,32.10
2023-04-23T14:13:49.602Z,31.70
2023-04-23T14:16:17.562Z,31.40
2023-04-23T14:18:45.699Z,30.90
2023-04-23T14:21:14.924Z,30.30
2023-04-23T14:23:47.909Z,29.90
2023-04-23T14:29:33.178Z,29.00
2023-04-23T14:32:00.699Z,28.70
2023-04-23T14:34:28.260Z,28.60
2023-04-23T14:36:55.486Z,28.50
2023-04-23T14:39:23.466Z,28.40
2023-04-23T14:41:50.493Z,28.10
2023-04-23T14:44:17.533Z,28.00
2023-04-23T14:46:44.556Z,27.60
2023-04-23T14:49:11.736Z,27.30
2023-04-23T14:51:39.016Z,27.10
2023-04-23T14:54:06.467Z,26.80
2023-04-23T14:56:33.491Z,26.50
2023-04-23T14:59:00.509Z,26.30
2023-04-23T15:01:27.897Z,26.20
2023-04-23T15:03:55.152Z,26.00
2023-04-23T15:06:23.227Z,26.00
2023-04-23T15:08:50.202Z,26.00
2023-04-23T15:11:17.524Z,26.00
2023-04-23T15:14:03.945Z,26.40
2023-04-23T15:19:06.566Z,27.30
2023-04-23T15:21:33.658Z,27.70
2023-04-23T15:24:00.724Z,27.90
2023-04-23T15:26:28.047Z,28.00
2023-04-23T15:28:55.932Z,28.10
2023-04-23T15:31:22.889Z,28.10
2023-04-23T15:33:50.002Z,28.10
2023-04-23T15:36:16.999Z,28.10
2023-04-23T15:38:44.129Z,28.10
2023-04-23T15:41:12.419Z,28.10
2023-04-23T15:43:39.738Z,28.20
2023-04-23T15:46:06.945Z,28.30
2023-04-23T15:48:34.289Z,28.70
2023-04-23T15:51:01.613Z,28.50
2023-04-23T15:53:29.110Z,28.40
2023-04-23T15:55:56.592Z,28.40
2023-04-23T15:58:23.681Z,28.70
2023-04-23T16:00:50.700Z,28.40
2023-04-23T16:03:17.870Z,28.50
2023-04-23T16:05:48.032Z,28.20
2023-04-23T16:08:16.277Z,28.00
2023-04-23T16:10:43.795Z,27.90
2023-04-23T16:13:11.071Z,27.80
2023-04-23T16:15:38.141Z,27.70
2023-04-23T16:18:06.083Z,27.80
2023-04-23T16:20:33.540Z,27.50
2023-04-23T16:23:01.362Z,27.30
2023-04-23T16:25:28.365Z,27.20
2023-04-23T16:27:56.268Z,26.90
2023-04-23T16:30:23.777Z,26.70
2023-04-23T16:32:51.185Z,26.50
2023-04-23T16:35:18.681Z,26.30
2023-04-23T16:37:45.872Z,26.20
2023-04-23T16:40:16.027Z,26.00
2023-04-23T16:42:43.977Z,25.70
2023-04-23T16:45:12.739Z,25.50
2023-04-23T16:47:39.777Z,25.30
2023-04-23T16:50:07.697Z,25.40
2023-04-23T16:52:35.072Z,25.00
2023-04-23T16:55:02.115Z,24.90
2023-04-23T16:57:29.784Z,25.00
2023-04-23T16:59:56.801Z,24.60
2023-04-23T17:02:23.939Z,24.30
2023-04-23T17:04:51.331Z,24.20
2023-04-23T17:07:18.451Z,24.20
2023-04-23T17:09:45.762Z,24.00
2023-04-23T17:12:12.681Z,23.70
2023-04-23T17:14:40.213Z,23.50
2023-04-23T17:17:07.427Z,23.20
2023-04-23T17:19:35.335Z,23.20
2023-04-23T17:22:03.290Z,22.90
2023-04-23T17:24:30.651Z,22.70
2023-04-23T17:26:57.799Z,22.70
2023-04-23T17:29:25.009Z,22.50
2023-04-23T17:31:52.136Z,22.60
2023-04-23T17:34:19.154Z,22.30
2023-04-23T17:36:46.335Z,22.40
2023-04-23T17:39:13.349Z,22.30
2023-04-23T17:41:40.519Z,22.00
2023-04-23T17:44:07.582Z,21.90
2023-04-23T17:46:34.630Z,21.80
2023-04-23T17:49:01.618Z,21.70
2023-04-23T17:51:28.754Z,21.60
2023-04-23T17:53:56.081Z,21.60
2023-04-23T17:56:23.815Z,21.40
2023-04-23T17:58:50.844Z,21.30
2023-04-23T18:01:17.913Z,21.20
2023-04-23T18:03:45.250Z,21.30
2023-04-23T18:06:12.676Z,21.00
2023-04-23T18:08:42.524Z,20.90
2023-04-23T18:11:10.707Z,20.80
2023-04-23T18:13:38.180Z,20.70
2023-04-23T18:16:05.309Z,20.60
2023-04-23T18:18:33.059Z,20.50
2023-04-23T18:21:02.829Z,20.40
2023-04-23T18:23:31.295Z,20.30
2023-04-23T18:26:01.582Z,20.20
2023-04-23T18:28:29.202Z,20.10
2023-04-23T18:31:02.126Z,20.00
2023-04-23T18:33:43.103Z,19.90
2023-04-23T18:36:34.204Z,19.70
2023-04-23T18:39:01.228Z,19.60
2023-04-23T18:41:31.086Z,19.50
2023-04-23T18:44:00.192Z,19.40
2023-04-23T18:46:28.935Z,19.20
2023-04-23T18:49:06.953Z,19.20
2023-04-23T18:51:45.763Z,19.00
2023-04-23T18:54:17.592Z,18.90
2023-04-23T18:56:45.495Z,18.80
2023-04-23T18:59:12.807Z,18.70
2023-04-23T19:01:40.663Z,18.60
2023-04-23T19:04:07.967Z,18.50
2023-04-23T19:06:35.117Z,18.40
2023-04-23T19:09:02.371Z,18.20
2023-04-23T19:11:34.057Z,18.10
2023-04-23T19:14:02.027Z,17.90
2023-04-23T19:16:29.032Z,17.90
2023-04-23T19:18:56.422Z,17.80
2023-04-23T19:21:23.355Z,17.70
2023-04-23T19:23:53.951Z,17.60
2023-04-23T19:26:20.983Z,17.60
2023-04-23T19:28:47.891Z,17.40
2023-04-23T19:31:15.219Z,17.30
2023-04-23T19:33:45.224Z,17.20
2023-04-23T19:36:12.357Z,17.20
2023-04-23T19:38:39.819Z,17.10
2023-04-23T19:41:07.705Z,17.00
2023-04-23T19:43:35.039Z,16.90
2023-04-23T19:46:02.119Z,16.80
2023-04-23T19:48:29.213Z,16.70
2023-04-23T19:50:56.144Z,16.70
2023-04-23T19:53:23.198Z,16.60
2023-04-23T19:55:50.400Z,16.50
2023-04-23T19:58:18.734Z,16.40
2023-04-23T20:00:46.076Z,16.30
2023-04-23T20:03:13.244Z,16.30
2023-04-23T20:05:42.146Z,16.20
2023-04-23T20:08:15.180Z,16.10
2023-04-23T20:10:43.352Z,16.10
2023-04-23T20:13:10.330Z,16.10
2023-04-23T20:15:37.557Z,16.00
2023-04-23T20:18:05.435Z,15.90
2023-04-23T20:20:33.917Z,15.90
2023-04-23T20:23:00.814Z,15.90
2023-04-23T20:25:27.720Z,15.70
2023-04-23T20:27:56.810Z,15.70
2023-04-23T20:30:24.248Z,15.70
2023-04-23T20:32:51.518Z,15.60
2023-04-23T20:35:18.581Z,15.60
2023-04-23T20:37:46.112Z,15.50
2023-04-23T20:40:14.382Z,15.60
2023-04-23T20:42:42.368Z,15.60
2023-04-23T20:45:13.013Z,15.40
2023-04-23T20:47:40.116Z,15.30
2023-04-23T20:50:08.271Z,15.30
2023-04-23T20:52:36.113Z,15.30
2023-04-23T20:55:03.355Z,15.20
2023-04-23T20:57:30.310Z,15.20
2023-04-23T20:59:57.224Z,15.10
2023-04-23T21:02:24.861Z,15.10
2023-04-23T21:04:51.963Z,15.10
2023-04-23T21:07:20.055Z,15.00
2023-04-23T21:09:47.228Z,15.00
2023-04-23T21:12:14.897Z,14.90
2023-04-23T21:14:42.432Z,14.90
2023-04-23T21:17:09.465Z,14.90
2023-04-23T21:19:36.655Z,14.80
2023-04-23T21:22:03.628Z,14.80
2023-04-23T21:24:30.878Z,14.70
2023-04-23T21:26:58.012Z,14.70
2023-04-23T21:29:26.404Z,14.60
2023-04-23T21:31:53.734Z,14.60
2023-04-23T21:34:21.637Z,14.60
2023-04-23T21:36:49.380Z,14.60
2023-04-23T21:39:16.383Z,14.50
2023-04-23T21:41:45.035Z,14.50
2023-04-23T21:44:12.140Z,14.50
2023-04-23T21:46:39.175Z,14.50
2023-04-23T21:49:07.086Z,14.50
2023-04-23T21:51:37.147Z,14.40
2023-04-23T21:54:08.248Z,14.30
2023-04-23T21:56:36.039Z,14.60
2023-04-23T21:59:03.051Z,14.30
2023-04-23T22:01:32.493Z,14.30
2023-04-23T22:04:01.824Z,14.30
2023-04-23T22:06:29.474Z,14.30
2023-04-23T22:08:57.471Z,14.20
2023-04-23T22:11:24.442Z,14.20
2023-04-23T22:13:51.490Z,14.20
2023-04-23T22:16:28.629Z,14.10
2023-04-23T22:18:57.583Z,14.10
2023-04-23T22:21:24.611Z,14.10
2023-04-23T22:23:51.812Z,14.10
2023-04-23T22:26:19.181Z,14.10
2023-04-23T22:28:46.507Z,14.10
2023-04-23T22:31:13.567Z,14.00
2023-04-23T22:33:40.522Z,14.00
2023-04-23T22:36:07.455Z,14.00
2023-04-23T22:38:34.925Z,14.00
2023-04-23T22:41:02.482Z,14.00
2023-04-23T22:43:29.394Z,14.00
2023-04-23T22:45:56.481Z,14.00
2023-04-23T22:48:23.850Z,14.00
2023-04-23T22:50:51.595Z,14.20
2023-04-23T22:53:19.423Z,13.90
2023-04-23T22:55:46.851Z,13.90
2023-04-23T22:58:13.987Z,13.90
2023-04-23T23:00:41.092Z,13.90
2023-04-23T23:03:08.313Z,13.90
2023-04-23T23:05:38.006Z,14.10
2023-04-23T23:08:05.091Z,14.00
2023-04-23T23:10:32.483Z,14.00
2023-04-23T23:12:59.831Z,14.00
2023-04-23T23:15:26.845Z,14.00
2023-04-23T23:17:53.942Z,14.00
2023-04-23T23:20:21.277Z,13.90
2023-04-23T23:22:48.302Z,13.90
2023-04-23T23:25:16.272Z,13.90
2023-04-23T23:27:43.318Z,13.90
2023-04-23T23:30:10.730Z,13.90
2023-04-23T23:32:38.225Z,13.90
2023-04-23T23:35:06.330Z,13.90
2023-04-23T23:37:33.350Z,13.90
2023-04-23T23:40:00.593Z,13.80
2023-04-23T23:42:27.898Z,13.80
2023-04-23T23:44:54.819Z,13.80
2023-04-23T23:47:22.001Z,13.80
2023-04-23T23:49:48.993Z,13.80
2023-04-23T23:52:16.202Z,13.70
2023-04-23T23:54:43.343Z,13.70
2023-04-23T23:57:10.955Z,13.70
2023-04-23T23:59:38.089Z,13.70
